AirNav   Everest Fuels
 
 1106 users online  

1XS0 Itll Do Airfield
Sandia, Texas, USA

GOING TO SANDIA?


FAA INFORMATION EFFECTIVE 22 APRIL 2021

Location

FAA Identifier: 1XS0
Lat/Long: 27-59-26.1300N 097-53-38.8100W
27-59.435500N 097-53.646833W
27.9905917,-97.8941139
(estimated)
Elevation: 153 ft. / 47 m (estimated)
From city: 2 miles S of SANDIA, TX
Time zone: UTC -5 (UTC -6 during Standard Time)
Zip code: 78383

Airport Operations

Airport use: Private use. Permission required prior to landing
Activation date: 05/2016
Control tower: no
ARTCC: HOUSTON CENTER
FSS: FORT WORTH FLIGHT SERVICE STATION
Attendance: ALL
Wind indicator: yes
Segmented circle: no

Airport Communications

WX ASOS at ALI (17 nm SW): 119.225 (361-668-0069)
WX AWOS-3 at RBO (17 nm SE): 118.175 (361-767-1982)
WX AWOS-3 at T69 (19 nm E): 118.25 (361-364-1844)

Nearby radio navigation aids

VOR radial/distance  VOR name  Freq  Var
ALIr018/(16.5)ALICE VOR114.5006E
CRPr273/24.4CORPUS CHRISTI VORTAC115.5009E
THXr148/33.7THREE RIVERS VORTAC111.4008E

Airport Services

Runway Information

Runway 17/35

Dimensions: 1800 x 25 ft. / 549 x 8 m
Surface: turf
RUNWAY 17  RUNWAY 35
Traffic pattern: leftleft

Runway 13/31

Dimensions: 1450 x 25 ft. / 442 x 8 m
Surface: turf
RUNWAY 13  RUNWAY 31
Traffic pattern: leftleft

Airport Ownership and Management from official FAA records

Ownership: Privately-owned
Owner: JIMMY KOENNING
494 COUNTY ROAD 358
SANDIA, TX 78383
Phone 361-227-7200
Manager: GAYLON KOENNING
2304 BUTLER DRIVE
FRIENDSWOOD, TX 77546
Phone 7135032055

Additional Remarks

FOR CD CTC HOUSTON ARTCC AT 281-230-5622.

Instrument Procedures

There are no published instrument procedures at 1XS0.

Some nearby airports with instrument procedures:

KNOG - Orange Grove Naval Auxiliary Field (10 nm SW)
KALI - Alice International Airport (17 nm SW)
KRBO - Nueces County Airport (17 nm SE)
T69 - Alfred C 'Bubba' Thomas Airport (19 nm E)
KBEA - Beeville Municipal Airport (23 nm N)
 
Loc | Ops | Rwys | IFR | FBO | Links
Com | Nav | Svcs | Stats | Notes
Aerial photo
No photo
 
Airport distance calculator
Flying to Itll Do Airfield? Find the distance to fly.

From to 1XS0

Sunrise and sunset
Times for 15-May-2021
 Local
(UTC-5)
 Zulu
(UTC)
Morning civil twilight06:1711:17
Sunrise06:4311:43
Sunset20:1301:13
Evening civil twilight20:3901:39

Current date and time
Zulu (UTC)  15-May-2021 21:24:09
Local (UTC-5)  15-May-2021 16:24:09
 
METAR
KNOG 
10nm SW 
152056Z AUTO 12019G24KT 10SM SCT021 BKN028 26/21 A2996 RMK AO2 PK WND 13029/2001 SLP123 T02610211 58012 $
KRBO 
17nm SE 
152055Z AUTO 12015G22KT 10SM SCT018 SCT025 SCT030 27/23 A2995 RMK AO2 LTG DSNT SE AND S T02730232
KALI 
17nm SW 
152053Z AUTO 12017G23KT 10SM OVC020 26/22 A2994 RMK AO2 PK WND 13027/1957 SLP135 T02610217 58023 $
KT69 
19nm E 
152055Z AUTO 14015G26KT 10SM FEW020 FEW026 26/22 A2996 RMK A01
TAF
KALI 
17nm SW 
151741Z 1518/1618 13014G24KT P6SM VCSH BKN015 OVC100 FM160400 13010KT P6SM VCSH OVC015 TEMPO 1604/1606 -SHRA OVC008 FM160600 12011KT 4SM -SHRA OVC015 FM161400 15014G22KT P6SM OVC025
NOTAMs
Click for the latest NOTAMs
NOTAMs are issued by the DoD/FAA and will open in a separate window not controlled by AirNav.

 

 
 

Would you like to see your business listed on this page?

 If your business provides an interesting product or service to pilots, flight crews, aircraft, or users of the Itll Do Airfield, you should consider listing it here.  To start the listing process, click on the button below
 
Add a business
 

Other Pages about Itll Do Airfield

Update a link
 
Copyright © AirNav, LLC. All rights reserved. Privacy Policy  Contact